createdAt,value
2017-07-04T00:00:29.778Z,5.70
2017-07-04T00:02:57.318Z,4.35
2017-07-04T00:05:24.837Z,4.97
2017-07-04T00:07:52.348Z,5.22
2017-07-04T00:10:20.664Z,4.43
2017-07-04T00:12:48.207Z,4.12
2017-07-04T00:15:15.783Z,4.32
2017-07-04T00:17:43.317Z,7.30
2017-07-04T00:20:10.882Z,4.97
2017-07-04T00:22:38.689Z,4.53
2017-07-04T00:25:06.577Z,4.30
2017-07-04T00:27:34.121Z,4.22
2017-07-04T00:30:01.678Z,3.90
2017-07-04T00:32:29.221Z,4.22
2017-07-04T00:34:56.981Z,4.70
2017-07-04T00:37:24.562Z,4.90
2017-07-04T00:39:52.061Z,4.25
2017-07-04T00:42:19.617Z,4.70
2017-07-04T00:44:47.122Z,3.62
2017-07-04T00:47:14.681Z,6.60
2017-07-04T00:49:42.237Z,4.30
2017-07-04T00:52:09.982Z,4.97
2017-07-04T00:54:37.514Z,6.12
2017-07-04T00:57:05.249Z,4.50
2017-07-04T00:59:33.544Z,4.62
2017-07-04T01:02:01.369Z,5.05
2017-07-04T01:04:28.993Z,6.68
2017-07-04T01:06:56.760Z,4.57
2017-07-04T01:09:24.273Z,5.35
2017-07-04T01:11:52.183Z,6.80
2017-07-04T01:14:19.773Z,5.00
2017-07-04T01:16:47.342Z,4.75
2017-07-04T01:19:14.844Z,5.10
2017-07-04T01:21:42.345Z,5.20
2017-07-04T01:24:09.898Z,5.15
2017-07-04T01:26:37.434Z,5.00
2017-07-04T01:29:05.301Z,5.25
2017-07-04T01:31:32.844Z,5.22
2017-07-04T01:34:00.388Z,4.95
2017-07-04T01:36:27.977Z,5.00
2017-07-04T01:38:55.481Z,4.80
2017-07-04T01:41:23.798Z,5.40
2017-07-04T01:43:51.397Z,6.72
2017-07-04T01:46:19.755Z,5.37
2017-07-04T01:48:47.308Z,6.10
2017-07-04T01:51:14.809Z,5.03
2017-07-04T01:53:42.333Z,6.62
2017-07-04T01:56:09.852Z,5.28
2017-07-04T01:58:37.420Z,5.15
2017-07-04T02:01:04.925Z,7.65
2017-07-04T02:03:33.266Z,4.93
2017-07-04T02:06:00.817Z,5.50
2017-07-04T02:08:28.330Z,4.50
2017-07-04T02:10:55.945Z,5.40
2017-07-04T02:13:23.681Z,7.80
2017-07-04T02:15:51.254Z,5.35
2017-07-04T02:18:19.018Z,8.32
2017-07-04T02:20:46.549Z,4.60
2017-07-04T02:23:14.109Z,6.15
2017-07-04T02:25:41.665Z,5.00
2017-07-04T02:28:09.244Z,5.80
2017-07-04T02:30:36.753Z,5.05
2017-07-04T02:33:04.550Z,4.72
2017-07-04T02:35:32.057Z,5.00
2017-07-04T02:37:59.681Z,5.77
2017-07-04T02:40:27.237Z,3.60
2017-07-04T02:42:54.749Z,4.62
2017-07-04T02:45:22.361Z,3.58
2017-07-04T02:47:50.644Z,3.50
2017-07-04T02:50:18.226Z,6.93
2017-07-04T02:52:45.734Z,4.40
2017-07-04T02:55:13.265Z,5.68
2017-07-04T02:57:40.817Z,5.87
2017-07-04T03:00:08.617Z,6.03
2017-07-04T03:02:36.138Z,9.77
2017-07-04T03:05:03.701Z,4.18
2017-07-04T03:07:31.233Z,4.55
2017-07-04T03:09:59.758Z,4.70
2017-07-04T03:12:27.377Z,4.15
2017-07-04T03:14:54.905Z,3.97
2017-07-04T03:17:22.408Z,3.67
2017-07-04T03:19:49.961Z,3.83
2017-07-04T03:22:17.758Z,9.13
2017-07-04T03:24:45.326Z,3.78
2017-07-04T03:27:12.838Z,6.40
2017-07-04T03:29:40.443Z,4.45
2017-07-04T03:32:08.298Z,3.28
2017-07-04T03:34:35.876Z,4.75
2017-07-04T03:37:03.450Z,3.87
2017-07-04T03:39:31.733Z,4.00
2017-07-04T03:42:00.087Z,8.30
2017-07-04T03:44:27.895Z,7.28
2017-07-04T03:46:55.493Z,4.25
2017-07-04T03:49:23.060Z,4.28
2017-07-04T03:51:50.597Z,8.55
2017-07-04T03:54:18.458Z,7.37
2017-07-04T03:56:46.257Z,6.95
2017-07-04T03:59:13.829Z,5.68
2017-07-04T04:01:41.373Z,7.60
2017-07-04T04:04:08.922Z,5.43
2017-07-04T04:06:36.498Z,5.50
2017-07-04T04:09:04.864Z,8.00
2017-07-04T04:11:32.404Z,5.25
2017-07-04T04:13:59.951Z,7.18
2017-07-04T04:16:27.482Z,4.60
2017-07-04T04:18:55.028Z,5.20
2017-07-04T04:21:22.917Z,6.70
2017-07-04T04:23:50.465Z,7.18
2017-07-04T04:26:17.984Z,6.40
2017-07-04T04:28:45.505Z,6.82
2017-07-04T04:31:13.070Z,9.85
2017-07-04T04:33:40.682Z,7.20
2017-07-04T04:36:08.232Z,9.48
2017-07-04T04:38:35.778Z,8.05
2017-07-04T04:41:04.507Z,7.57
2017-07-04T04:43:32.073Z,8.73
2017-07-04T04:45:59.589Z,12.77
2017-07-04T04:48:27.142Z,8.15
2017-07-04T04:50:54.685Z,8.73
2017-07-04T04:53:23.033Z,8.43
2017-07-04T04:55:50.598Z,8.27
2017-07-04T04:58:18.130Z,7.43
2017-07-04T05:00:45.705Z,10.38
2017-07-04T05:03:13.594Z,7.45
2017-07-04T05:05:41.258Z,7.55
2017-07-04T05:08:09.547Z,12.10
2017-07-04T05:10:37.073Z,8.45
2017-07-04T05:13:04.572Z,8.90
2017-07-04T05:15:32.102Z,8.98
2017-07-04T05:17:59.638Z,11.80
2017-07-04T05:20:27.473Z,7.70
2017-07-04T05:22:55.338Z,9.48
2017-07-04T05:25:22.846Z,8.40
2017-07-04T05:27:51.214Z,8.52
2017-07-04T05:30:18.749Z,8.48
2017-07-04T05:32:46.589Z,6.62
2017-07-04T05:35:14.193Z,6.68
2017-07-04T05:37:41.726Z,7.43
2017-07-04T05:40:09.286Z,7.00
2017-07-04T05:42:37.126Z,8.73
2017-07-04T05:45:04.677Z,8.07
2017-07-04T05:47:32.177Z,8.77
2017-07-04T05:49:59.682Z,7.80
2017-07-04T05:52:27.249Z,7.05
2017-07-04T05:54:54.824Z,9.90
2017-07-04T05:57:22.395Z,7.50
2017-07-04T05:59:49.965Z,7.05
2017-07-04T06:02:17.669Z,8.52
2017-07-04T06:04:45.244Z,9.40
2017-07-04T06:07:12.793Z,8.60
2017-07-04T06:09:40.372Z,9.65
2017-07-04T06:12:07.937Z,6.97
2017-07-04T06:14:35.473Z,7.43
2017-07-04T06:17:03.002Z,7.72
2017-07-04T06:19:30.798Z,10.18
2017-07-04T06:21:58.337Z,7.30
2017-07-04T06:24:25.961Z,10.02
2017-07-04T06:26:54.494Z,11.57
2017-07-04T06:29:22.070Z,9.20
2017-07-04T06:31:49.597Z,7.05
2017-07-04T06:34:17.111Z,10.13
2017-07-04T06:36:45.752Z,9.05
2017-07-04T06:39:13.324Z,10.07
2017-07-04T06:41:41.169Z,13.48
2017-07-04T06:44:08.765Z,12.82
2017-07-04T06:46:36.314Z,8.00
2017-07-04T06:49:03.817Z,8.13
2017-07-04T06:51:31.605Z,6.75
2017-07-04T06:53:59.138Z,10.23
2017-07-04T06:56:26.649Z,8.73
2017-07-04T06:58:54.170Z,6.72
2017-07-04T07:01:21.694Z,7.75
2017-07-04T07:03:49.493Z,8.70
2017-07-04T07:06:17.017Z,9.43
2017-07-04T07:08:44.593Z,9.15
2017-07-04T07:11:13.449Z,8.10
2017-07-04T07:13:41.766Z,5.65
2017-07-04T07:16:09.305Z,8.48
2017-07-04T07:18:36.809Z,7.47
2017-07-04T07:21:04.385Z,8.45
2017-07-04T07:23:31.918Z,6.85
2017-07-04T07:25:59.442Z,8.70
2017-07-04T07:28:26.942Z,12.52
2017-07-04T07:30:54.501Z,13.00
2017-07-04T07:33:22.033Z,7.57
2017-07-04T07:35:49.580Z,7.97
2017-07-04T07:38:17.248Z,7.35
2017-07-04T07:40:44.751Z,8.85
2017-07-04T07:43:13.077Z,8.80
2017-07-04T07:45:40.582Z,6.90
2017-07-04T07:48:08.877Z,7.15
2017-07-04T07:50:36.378Z,7.75
2017-07-04T07:53:03.962Z,6.80
2017-07-04T07:55:31.471Z,8.02
2017-07-04T07:57:59.030Z,9.00
2017-07-04T08:00:26.812Z,8.75
2017-07-04T08:02:54.341Z,10.75
2017-07-04T08:05:21.869Z,5.80
2017-07-04T08:07:50.142Z,8.05
2017-07-04T08:10:17.710Z,6.07
2017-07-04T08:12:45.520Z,5.78
2017-07-04T08:15:13.053Z,8.82
2017-07-04T08:17:40.573Z,7.00
2017-07-04T08:20:08.869Z,6.77
2017-07-04T08:22:36.381Z,5.97
2017-07-04T08:25:03.961Z,5.45
2017-07-04T08:27:31.497Z,6.68
2017-07-04T08:29:59.004Z,6.62
2017-07-04T08:32:26.854Z,5.70
2017-07-04T08:34:54.370Z,10.45
2017-07-04T08:37:21.895Z,7.35
2017-07-04T08:39:49.429Z,10.35
2017-07-04T08:42:16.991Z,8.15
2017-07-04T08:44:44.498Z,5.03
2017-07-04T08:47:12.040Z,8.32
2017-07-04T08:49:39.568Z,5.40
2017-07-04T08:52:07.350Z,6.32
2017-07-04T08:54:34.885Z,7.62
2017-07-04T08:57:02.422Z,5.60
2017-07-04T08:59:29.978Z,8.35
2017-07-04T09:01:57.481Z,7.18
2017-07-04T09:04:25.058Z,7.50
2017-07-04T09:06:52.604Z,7.68
2017-07-04T09:09:20.109Z,7.65
2017-07-04T09:11:47.667Z,5.65
2017-07-04T09:14:15.249Z,4.30
2017-07-04T09:16:42.781Z,6.35
2017-07-04T09:19:10.329Z,4.50
2017-07-04T09:21:38.640Z,6.35
2017-07-04T09:24:06.141Z,6.57
2017-07-04T09:26:33.713Z,6.55
2017-07-04T09:29:02.235Z,5.22
2017-07-04T09:31:29.753Z,5.03
2017-07-04T09:33:58.074Z,6.57
2017-07-04T09:36:25.574Z,8.13
2017-07-04T09:38:53.100Z,6.95
2017-07-04T09:41:20.620Z,8.05
2017-07-04T09:43:48.187Z,8.00
2017-07-04T09:46:15.768Z,7.47
2017-07-04T09:48:44.359Z,10.48
2017-07-04T09:51:12.276Z,9.07
2017-07-04T09:53:39.833Z,11.07
2017-07-04T09:56:07.365Z,6.60
2017-07-04T09:58:35.692Z,4.18
2017-07-04T10:01:03.221Z,7.15
2017-07-04T10:03:31.018Z,5.50
2017-07-04T10:05:58.581Z,4.93
2017-07-04T10:08:26.441Z,4.12
2017-07-04T10:10:54.001Z,4.10
2017-07-04T10:13:21.542Z,4.57
2017-07-04T10:15:49.077Z,6.80
2017-07-04T10:18:16.878Z,4.32
2017-07-04T10:20:44.645Z,3.80
2017-07-04T10:23:12.213Z,6.30
2017-07-04T10:25:39.965Z,3.50
2017-07-04T10:28:07.495Z,5.80
2017-07-04T10:30:35.006Z,5.53
2017-07-04T10:33:02.906Z,6.45
2017-07-04T10:35:30.453Z,6.50
2017-07-04T10:37:57.958Z,5.20
2017-07-04T10:40:25.484Z,7.65
2017-07-04T10:42:53.270Z,6.50
2017-07-04T10:45:21.136Z,4.65
2017-07-04T10:47:48.686Z,4.85
2017-07-04T10:50:16.277Z,4.60
2017-07-04T10:52:43.784Z,5.25
2017-07-04T10:55:11.361Z,4.97
2017-07-04T10:57:38.856Z,4.27
2017-07-04T11:00:06.373Z,7.50
2017-07-04T11:02:33.890Z,4.50
2017-07-04T11:05:02.161Z,4.18
2017-07-04T11:07:30.562Z,2.90
2017-07-04T11:09:58.061Z,3.87
2017-07-04T11:12:25.610Z,5.07
2017-07-04T11:14:53.140Z,5.62
2017-07-04T11:17:20.709Z,3.00
2017-07-04T11:19:48.477Z,3.90
2017-07-04T11:22:15.981Z,6.75
2017-07-04T11:24:44.275Z,4.87
2017-07-04T11:27:11.817Z,6.32
2017-07-04T11:29:40.104Z,3.90
2017-07-04T11:32:07.645Z,5.22
2017-07-04T11:34:35.256Z,6.93
2017-07-04T11:37:02.780Z,5.00
2017-07-04T11:39:30.310Z,3.62
2017-07-04T11:41:58.620Z,5.37
2017-07-04T11:44:26.202Z,3.95
2017-07-04T11:46:53.711Z,4.80
2017-07-04T11:49:22.013Z,5.55
2017-07-04T11:51:49.573Z,4.50
2017-07-04T11:54:17.336Z,3.87
2017-07-04T11:56:44.881Z,4.18
2017-07-04T11:59:12.381Z,3.42
2017-07-04T12:01:41.251Z,2.53
2017-07-04T12:04:10.255Z,3.72
2017-07-04T12:06:37.894Z,2.20
2017-07-04T12:09:05.396Z,3.05
2017-07-04T12:11:32.990Z,5.62
2017-07-04T12:14:00.485Z,2.08
2017-07-04T12:16:28.025Z,2.92
2017-07-04T12:18:55.797Z,2.72
2017-07-04T12:21:23.310Z,3.35
2017-07-04T12:23:51.646Z,2.75
2017-07-04T12:26:19.148Z,5.12
2017-07-04T12:28:46.669Z,3.75
2017-07-04T12:31:14.232Z,4.68
2017-07-04T12:33:41.813Z,6.15
2017-07-04T12:36:09.340Z,4.55
2017-07-04T12:38:36.861Z,2.53
2017-07-04T12:41:04.388Z,3.70
2017-07-04T12:43:31.985Z,3.95
2017-07-04T12:45:59.591Z,4.22
2017-07-04T12:48:27.093Z,3.20
2017-07-04T12:50:54.617Z,7.43
2017-07-04T12:53:22.934Z,4.15
2017-07-04T12:55:50.457Z,3.00
2017-07-04T12:58:18.010Z,4.20
2017-07-04T13:00:45.517Z,3.15
2017-07-04T13:03:13.100Z,3.95
2017-07-04T13:05:40.974Z,4.18
2017-07-04T13:08:09.308Z,3.70
2017-07-04T13:10:36.833Z,2.92
2017-07-04T13:13:04.383Z,3.25
2017-07-04T13:15:31.942Z,3.05
2017-07-04T13:17:59.509Z,2.12
2017-07-04T13:20:28.118Z,2.42
2017-07-04T13:22:55.616Z,4.18
2017-07-04T13:25:23.914Z,3.55
2017-07-04T13:27:51.414Z,3.40
2017-07-04T13:30:21.890Z,3.85
2017-07-04T13:32:52.099Z,5.15
2017-07-04T13:35:19.804Z,4.47
2017-07-04T13:37:47.307Z,4.15
2017-07-04T13:40:15.602Z,3.22
2017-07-04T13:42:43.197Z,6.22
2017-07-04T13:45:10.693Z,4.93
2017-07-04T13:47:39.083Z,3.83
2017-07-04T13:50:07.423Z,3.10
2017-07-04T13:52:34.942Z,4.47
2017-07-04T13:55:02.473Z,3.47
2017-07-04T13:57:31.101Z,3.15
2017-07-04T13:59:58.971Z,3.42
2017-07-04T14:02:26.710Z,4.75
2017-07-04T14:04:54.293Z,4.90
2017-07-04T14:07:21.829Z,3.42
2017-07-04T14:09:49.709Z,2.60
2017-07-04T14:12:17.224Z,2.90
2017-07-04T14:14:45.517Z,4.87
2017-07-04T14:17:13.305Z,2.95
2017-07-04T14:19:41.048Z,4.45
2017-07-04T14:22:08.831Z,5.50
2017-07-04T14:24:36.338Z,3.03
2017-07-04T14:27:05.207Z,5.43
2017-07-04T14:29:32.815Z,10.23
2017-07-04T14:32:00.654Z,3.08
2017-07-04T14:34:28.925Z,2.97
2017-07-04T14:36:56.430Z,3.30
2017-07-04T14:39:23.979Z,4.12
2017-07-04T14:41:51.487Z,3.30
2017-07-04T14:44:19.038Z,4.35
2017-07-04T14:46:47.306Z,3.00
2017-07-04T14:49:15.094Z,3.20
2017-07-04T14:51:42.630Z,2.90
2017-07-04T14:54:10.922Z,3.53
2017-07-04T14:56:39.436Z,4.28
2017-07-04T14:59:06.993Z,4.78
2017-07-04T15:01:34.766Z,5.43
2017-07-04T15:04:02.270Z,4.45
2017-07-04T15:06:30.605Z,4.18
2017-07-04T15:08:58.119Z,4.43
2017-07-04T15:11:25.663Z,4.23
2017-07-04T15:13:53.987Z,4.12
2017-07-04T15:16:21.575Z,4.35
2017-07-04T15:18:49.411Z,4.18
2017-07-04T15:21:16.950Z,4.82
2017-07-04T15:23:44.481Z,4.60
2017-07-04T15:26:12.314Z,3.45
2017-07-04T15:28:39.902Z,5.55
2017-07-04T15:31:07.461Z,3.90
2017-07-04T15:33:35.780Z,6.57
2017-07-04T15:36:03.541Z,3.65
2017-07-04T15:38:31.069Z,4.72
2017-07-04T15:40:58.573Z,7.10
2017-07-04T15:43:26.114Z,3.35
2017-07-04T15:45:53.685Z,3.78
2017-07-04T15:48:21.233Z,4.80
2017-07-04T15:50:48.810Z,3.95
2017-07-04T15:53:16.649Z,2.90
2017-07-04T15:55:44.319Z,3.80
2017-07-04T15:58:11.903Z,5.30
2017-07-04T16:00:39.439Z,4.05
2017-07-04T16:03:06.956Z,4.70
2017-07-04T16:05:34.464Z,3.28
2017-07-04T16:08:02.013Z,4.55
2017-07-04T16:10:29.571Z,4.28
2017-07-04T16:12:57.146Z,4.45
2017-07-04T16:15:25.474Z,4.55
2017-07-04T16:17:53.065Z,4.47
2017-07-04T16:20:20.745Z,5.65
2017-07-04T16:22:49.017Z,3.90
2017-07-04T16:25:17.311Z,4.60
2017-07-04T16:27:44.850Z,3.58
2017-07-04T16:30:13.158Z,3.65
2017-07-04T16:32:40.946Z,4.85
2017-07-04T16:35:08.446Z,5.80
2017-07-04T16:37:36.022Z,4.65
2017-07-04T16:40:03.826Z,5.72
2017-07-04T16:42:31.356Z,4.00
2017-07-04T16:44:59.141Z,4.53
2017-07-04T16:47:26.677Z,3.40
2017-07-04T16:49:54.211Z,5.75
2017-07-04T16:52:21.802Z,5.97
2017-07-04T16:54:49.349Z,4.60
2017-07-04T16:57:16.933Z,4.53
2017-07-04T16:59:44.497Z,7.95
2017-07-04T17:02:12.073Z,5.35
2017-07-04T17:04:39.934Z,4.93
2017-07-04T17:07:07.455Z,4.32
2017-07-04T17:09:36.194Z,5.95
2017-07-04T17:12:04.475Z,6.07
2017-07-04T17:14:32.749Z,3.97
2017-07-04T17:17:01.075Z,4.93
2017-07-04T17:19:28.614Z,4.12
2017-07-04T17:21:56.225Z,5.53
2017-07-04T17:24:23.722Z,4.45
2017-07-04T17:26:51.557Z,3.83
2017-07-04T17:29:20.094Z,5.10
2017-07-04T17:31:47.740Z,4.12
2017-07-04T17:34:15.529Z,4.70
2017-07-04T17:36:43.031Z,3.60
2017-07-04T17:39:11.365Z,6.57
2017-07-04T17:41:38.918Z,4.65
2017-07-04T17:44:06.524Z,4.93
2017-07-04T17:46:34.798Z,6.20
2017-07-04T17:49:02.329Z,5.28
2017-07-04T17:51:29.871Z,5.03
2017-07-04T17:53:57.458Z,4.10
2017-07-04T17:56:25.997Z,6.22
2017-07-04T17:58:53.599Z,5.97
2017-07-04T18:01:21.965Z,6.07
2017-07-04T18:03:49.510Z,4.20
2017-07-04T18:06:17.041Z,5.05
2017-07-04T18:08:44.710Z,6.90
2017-07-04T18:11:12.277Z,5.35
2017-07-04T18:13:39.817Z,4.80
2017-07-04T18:16:07.722Z,5.57
2017-07-04T18:18:35.231Z,5.57
2017-07-04T18:21:02.789Z,5.87
2017-07-04T18:23:31.240Z,5.05
2017-07-04T18:25:58.814Z,6.35
2017-07-04T18:28:26.338Z,5.10
2017-07-04T18:30:54.645Z,5.37
2017-07-04T18:33:22.298Z,4.70
2017-07-04T18:35:50.262Z,7.10
2017-07-04T18:38:19.170Z,4.45
2017-07-04T18:40:47.110Z,7.10
2017-07-04T18:43:14.793Z,6.22
2017-07-04T18:45:42.316Z,4.65
2017-07-04T18:48:09.875Z,5.87
2017-07-04T18:50:38.218Z,6.03
2017-07-04T18:53:06.084Z,8.23
2017-07-04T18:55:33.615Z,6.40
2017-07-04T18:58:01.377Z,6.50
2017-07-04T19:00:28.923Z,7.15
2017-07-04T19:02:56.454Z,8.73
2017-07-04T19:05:24.030Z,6.03
2017-07-04T19:07:51.605Z,5.97
2017-07-04T19:10:19.106Z,7.82
2017-07-04T19:12:47.484Z,6.55
2017-07-04T19:15:14.994Z,6.80
2017-07-04T19:17:42.579Z,6.43
2017-07-04T19:20:10.085Z,7.78
2017-07-04T19:22:37.619Z,6.93
2017-07-04T19:25:05.948Z,7.07
2017-07-04T19:27:33.719Z,8.77
2017-07-04T19:30:01.532Z,8.23
2017-07-04T19:32:29.041Z,9.45
2017-07-04T19:34:56.570Z,9.85
2017-07-04T19:37:25.833Z,8.45
2017-07-04T19:39:53.542Z,7.30
2017-07-04T19:42:21.307Z,8.40
2017-07-04T19:44:50.417Z,8.57
2017-07-04T19:47:18.581Z,8.50
2017-07-04T19:49:48.357Z,10.48
2017-07-04T19:52:19.624Z,11.45
2017-07-04T19:54:47.400Z,7.87
2017-07-04T19:57:19.984Z,9.13
2017-07-04T19:59:48.277Z,8.35
2017-07-04T20:02:16.202Z,8.30
2017-07-04T20:04:43.793Z,10.40
2017-07-04T20:07:11.404Z,10.40
2017-07-04T20:09:39.137Z,9.38
2017-07-04T20:12:06.698Z,9.05
2017-07-04T20:14:35.014Z,8.23
2017-07-04T20:17:02.539Z,7.90
2017-07-04T20:19:30.065Z,8.73
2017-07-04T20:21:57.585Z,8.80
2017-07-04T20:24:25.185Z,8.15
2017-07-04T20:26:53.464Z,9.18
2017-07-04T20:29:21.807Z,8.10
2017-07-04T20:31:49.358Z,8.30
2017-07-04T20:34:17.223Z,8.55
2017-07-04T20:36:45.082Z,10.20
2017-07-04T20:39:12.677Z,9.13
2017-07-04T20:41:40.274Z,9.70
2017-07-04T20:44:07.786Z,11.55
2017-07-04T20:46:35.321Z,8.95
2017-07-04T20:49:02.854Z,9.45
2017-07-04T20:51:30.729Z,9.43
2017-07-04T20:53:58.258Z,8.90
2017-07-04T20:56:25.805Z,9.00
2017-07-04T20:58:53.360Z,10.35
2017-07-04T21:01:21.203Z,10.05
2017-07-04T21:03:48.729Z,9.73
2017-07-04T21:06:16.233Z,9.95
2017-07-04T21:08:44.525Z,8.52
2017-07-04T21:11:12.067Z,10.75
2017-07-04T21:13:40.366Z,10.73
2017-07-04T21:16:07.916Z,10.60
2017-07-04T21:18:35.421Z,10.00
2017-07-04T21:21:02.982Z,10.25
2017-07-04T21:23:30.485Z,9.75
2017-07-04T21:25:58.277Z,10.50
2017-07-04T21:28:25.786Z,11.30
2017-07-04T21:30:54.118Z,9.50
2017-07-04T21:33:21.621Z,9.20
2017-07-04T21:35:49.890Z,9.20
2017-07-04T21:38:18.178Z,8.23
2017-07-04T21:40:47.242Z,9.13
2017-07-04T21:43:14.766Z,9.13
2017-07-04T21:45:42.330Z,9.52
2017-07-04T21:48:09.881Z,10.20
2017-07-04T21:50:37.424Z,8.32
2017-07-04T21:53:04.953Z,9.10
2017-07-04T21:55:32.502Z,9.40
2017-07-04T21:58:00.802Z,9.85
2017-07-04T22:00:28.586Z,9.45
2017-07-04T22:02:56.091Z,9.40
2017-07-04T22:05:24.390Z,11.25
2017-07-04T22:07:51.961Z,11.63
2017-07-04T22:10:19.489Z,9.13
2017-07-04T22:12:47.758Z,8.65
2017-07-04T22:15:15.289Z,10.57
2017-07-04T22:17:42.822Z,11.00
2017-07-04T22:20:10.352Z,9.70
2017-07-04T22:22:38.175Z,11.85
2017-07-04T22:25:05.701Z,9.35
2017-07-04T22:27:33.225Z,9.32
2017-07-04T22:30:00.725Z,9.80
2017-07-04T22:32:28.309Z,10.70
2017-07-04T22:34:56.582Z,10.40
2017-07-04T22:37:24.917Z,11.38
2017-07-04T22:39:52.452Z,10.00
2017-07-04T22:42:20.238Z,10.52
2017-07-04T22:44:48.029Z,10.55
2017-07-04T22:47:15.531Z,9.68
2017-07-04T22:49:43.081Z,10.65
2017-07-04T22:52:10.587Z,10.75
2017-07-04T22:54:38.141Z,10.82
2017-07-04T22:57:05.971Z,10.73
2017-07-04T22:59:33.534Z,10.43
2017-07-04T23:02:01.105Z,9.95
2017-07-04T23:04:28.639Z,9.70
2017-07-04T23:06:56.425Z,10.60
2017-07-04T23:09:23.929Z,10.30
2017-07-04T23:11:51.449Z,9.90
2017-07-04T23:14:18.963Z,12.88
2017-07-04T23:16:46.502Z,11.45
2017-07-04T23:19:14.795Z,10.25
2017-07-04T23:21:42.338Z,11.07
2017-07-04T23:24:10.608Z,11.38
2017-07-04T23:26:39.242Z,10.50
2017-07-04T23:29:06.759Z,10.13
2017-07-04T23:31:35.066Z,10.15
2017-07-04T23:34:02.600Z,10.00
2017-07-04T23:36:30.113Z,11.73
2017-07-04T23:38:57.645Z,11.07
2017-07-04T23:41:25.172Z,11.25
2017-07-04T23:43:52.742Z,10.57
2017-07-04T23:46:20.274Z,10.17
2017-07-04T23:48:47.804Z,10.05
2017-07-04T23:51:15.351Z,9.45
2017-07-04T23:53:43.152Z,9.77
2017-07-04T23:56:10.686Z,10.20
2017-07-04T23:58:38.215Z,10.30
